Time;durP1;ratioP1;P1;durP2;ratioP2;P2;SDS_P1;SDS_P2;PMS_P1;PMS_P2;Temp;Humidity;BMP_temperature;BMP_pressure;BME280_temperature;BME280_humidity;BME280_pressure;Samples;Min_cycle;Max_cycle;Signal;HPM_P1;HPM_P2
2021/07/22 00:00:05;;;;;;;6.07;5.18;;;17.50;99.90;;;;;;5032086;28;20048;-40
2021/07/22 00:02:31;;;;;;;7.03;4.95;;;17.50;99.90;;;;;;5033284;28;20025;-39
2021/07/22 00:04:56;;;;;;;8.50;6.32;;;17.50;99.90;;;;;;5033262;28;20026;-39
2021/07/22 00:07:22;;;;;;;9.13;6.03;;;17.50;99.90;;;;;;5033257;28;20030;-41
2021/07/22 00:09:48;;;;;;;7.40;5.97;;;17.50;99.90;;;;;;5033242;28;20018;-39
2021/07/22 00:12:14;;;;;;;8.82;6.15;;;17.50;99.90;;;;;;5033041;28;20034;-39
2021/07/22 00:14:40;;;;;;;10.57;7.07;;;17.40;99.90;;;;;;5032017;28;20104;-39
2021/07/22 00:17:07;;;;;;;7.18;5.10;;;17.40;99.90;;;;;;5033125;28;20029;-39
2021/07/22 00:19:32;;;;;;;8.13;5.47;;;17.40;99.90;;;;;;5033035;28;20029;-39
2021/07/22 00:21:58;;;;;;;7.05;5.60;;;17.40;99.90;;;;;;5033055;28;20523;-39
2021/07/22 00:24:25;;;;;;;7.53;5.00;;;17.40;99.90;;;;;;5032886;28;20530;-39
2021/07/22 00:26:50;;;;;;;8.23;5.45;;;17.40;99.90;;;;;;5032884;28;20040;-39
2021/07/22 00:29:16;;;;;;;7.85;5.95;;;17.30;99.90;;;;;;5031680;28;20025;-39
2021/07/22 00:31:41;;;;;;;8.52;6.07;;;17.40;99.90;;;;;;5032919;28;20033;-40
2021/07/22 00:34:07;;;;;;;7.20;5.72;;;17.40;99.90;;;;;;5032981;28;20041;-39
2021/07/22 00:36:32;;;;;;;7.35;5.15;;;17.30;99.90;;;;;;5032699;28;20056;-39
2021/07/22 00:38:58;;;;;;;9.18;6.13;;;17.30;99.90;;;;;;5032840;28;20037;-38
2021/07/22 00:41:23;;;;;;;11.43;6.05;;;17.30;99.90;;;;;;5032687;28;20112;-39
2021/07/22 00:43:49;;;;;;;7.53;5.68;;;17.30;99.90;;;;;;5030603;28;20026;-39
2021/07/22 00:46:15;;;;;;;9.30;6.82;;;17.30;99.90;;;;;;5015035;28;20040;-40
2021/07/22 00:48:41;;;;;;;9.73;6.55;;;17.30;99.90;;;;;;5032811;28;20026;-41
2021/07/22 00:51:07;;;;;;;7.78;5.53;;;17.30;99.90;;;;;;5032727;28;20084;-41
2021/07/22 00:53:36;;;;;;;7.78;5.80;;;17.20;99.90;;;;;;5032655;28;20388;-38
2021/07/22 00:56:03;;;;;;;9.95;5.72;;;17.20;99.90;;;;;;5032588;28;20021;-39
2021/07/22 00:58:28;;;;;;;7.85;5.68;;;17.20;99.90;;;;;;5032607;28;20503;-39
2021/07/22 01:00:54;;;;;;;8.85;6.38;;;17.20;99.90;;;;;;5031334;28;20022;-39
2021/07/22 01:03:19;;;;;;;7.03;5.38;;;17.20;99.90;;;;;;5032543;28;20029;-39
2021/07/22 01:05:45;;;;;;;10.82;6.07;;;17.20;99.90;;;;;;5032511;28;20021;-39
2021/07/22 01:08:10;;;;;;;7.07;5.70;;;17.20;99.90;;;;;;5032594;28;20021;-38
2021/07/22 01:10:36;;;;;;;11.15;5.88;;;17.20;99.90;;;;;;5032445;28;20511;-39
2021/07/22 01:13:02;;;;;;;7.85;5.18;;;17.10;99.90;;;;;;5032611;28;20025;-39
2021/07/22 01:15:27;;;;;;;8.23;5.93;;;17.10;99.90;;;;;;5031174;28;20030;-39
2021/07/22 01:17:53;;;;;;;7.07;5.72;;;17.10;99.90;;;;;;5032525;28;20037;-39
2021/07/22 01:20:23;;;;;;;8.40;5.72;;;17.10;99.90;;;;;;5032417;28;20033;-39
2021/07/22 01:22:51;;;;;;;7.95;6.28;;;17.00;99.90;;;;;;5032479;28;20033;-39
2021/07/22 01:25:18;;;;;;;8.75;6.40;;;17.00;99.90;;;;;;5032286;28;20480;-40
2021/07/22 01:27:44;;;;;;;6.82;5.30;;;17.00;99.90;;;;;;5032427;28;20021;-39
2021/07/22 01:30:11;;;;;;;7.55;5.47;;;17.00;99.90;;;;;;5031152;28;20456;-39
2021/07/22 01:32:36;;;;;;;7.57;6.13;;;17.00;99.90;;;;;;5032307;28;20033;-38
2021/07/22 01:35:02;;;;;;;8.02;6.13;;;16.90;99.90;;;;;;5032400;28;20033;-39
2021/07/22 01:37:28;;;;;;;8.48;5.88;;;16.90;99.90;;;;;;5032137;28;20049;-41
2021/07/22 01:39:54;;;;;;;7.53;6.13;;;16.90;99.90;;;;;;5032327;28;20051;-39
2021/07/22 01:42:19;;;;;;;9.68;5.40;;;16.80;99.90;;;;;;5032292;28;20044;-40
2021/07/22 01:44:45;;;;;;;10.02;6.53;;;16.80;99.90;;;;;;5030890;28;20377;-39
2021/07/22 01:47:10;;;;;;;8.63;6.07;;;16.80;99.90;;;;;;5032233;28;20032;-39
2021/07/22 01:49:36;;;;;;;7.00;5.28;;;16.70;99.90;;;;;;5032141;28;20424;-39
2021/07/22 01:52:02;;;;;;;8.88;5.82;;;16.70;99.90;;;;;;5032198;28;20029;-38
2021/07/22 01:54:28;;;;;;;10.10;6.50;;;16.70;99.90;;;;;;5032007;28;20041;-39
2021/07/22 01:56:57;;;;;;;9.40;5.70;;;16.70;99.90;;;;;;5035557;28;20116;-39
2021/07/22 01:59:23;;;;;;;10.23;7.72;;;16.70;99.90;;;;;;5034243;28;20038;-38
2021/07/22 02:01:48;;;;;;;8.65;6.13;;;16.60;99.90;;;;;;5035568;28;20030;-39
2021/07/22 02:04:14;;;;;;;8.10;6.55;;;16.60;99.90;;;;;;5035497;28;20033;-39
2021/07/22 02:06:39;;;;;;;7.53;5.53;;;16.60;99.90;;;;;;5035418;28;20452;-39
2021/07/22 02:09:05;;;;;;;9.43;6.00;;;16.60;99.90;;;;;;5035378;28;20025;-39
2021/07/22 02:11:30;;;;;;;7.90;5.60;;;16.50;99.90;;;;;;5035347;28;20095;-39
2021/07/22 02:13:56;;;;;;;11.10;5.75;;;16.50;99.90;;;;;;5034089;28;20163;-40
2021/07/22 02:16:21;;;;;;;7.95;5.22;;;16.50;99.90;;;;;;5035252;28;20037;-39
2021/07/22 02:18:47;;;;;;;7.20;5.75;;;16.50;99.90;;;;;;5035274;28;20033;-39
2021/07/22 02:21:13;;;;;;;7.53;5.57;;;16.50;99.90;;;;;;5035272;28;20409;-41
2021/07/22 02:23:38;;;;;;;7.93;6.15;;;16.40;99.90;;;;;;5034906;28;20081;-41
2021/07/22 02:26:05;;;;;;;9.23;6.28;;;16.40;99.90;;;;;;5035147;28;20068;-39
2021/07/22 02:28:30;;;;;;;9.18;6.13;;;16.40;99.90;;;;;;5035056;28;20025;-39
2021/07/22 02:30:56;;;;;;;8.75;5.88;;;16.40;99.90;;;;;;5033764;28;20068;-39
2021/07/22 02:33:21;;;;;;;8.00;6.03;;;16.40;99.90;;;;;;5035034;28;20497;-39
2021/07/22 02:35:47;;;;;;;8.48;6.28;;;16.30;99.90;;;;;;5034705;28;20036;-39
2021/07/22 02:38:12;;;;;;;8.85;5.85;;;16.30;99.90;;;;;;5034850;28;20049;-39
2021/07/22 02:40:39;;;;;;;8.07;5.68;;;16.30;99.90;;;;;;5034820;28;20412;-39
2021/07/22 02:43:05;;;;;;;7.57;6.15;;;16.40;99.90;;;;;;5035082;28;20079;-39
2021/07/22 02:45:30;;;;;;;9.25;6.57;;;16.30;99.90;;;;;;5033422;28;20096;-39
2021/07/22 02:47:56;;;;;;;8.43;5.70;;;16.30;99.90;;;;;;5034746;28;20481;-39
2021/07/22 02:50:21;;;;;;;10.63;6.72;;;16.30;99.90;;;;;;5034767;28;20036;-39
2021/07/22 02:52:47;;;;;;;10.00;6.78;;;16.30;99.90;;;;;;5034476;28;20465;-43
2021/07/22 02:55:13;;;;;;;10.57;7.13;;;16.20;99.90;;;;;;5034618;28;20037;-41
2021/07/22 02:57:38;;;;;;;10.63;6.28;;;16.20;99.90;;;;;;5034521;28;20033;-39
2021/07/22 03:00:05;;;;;;;7.55;5.78;;;16.20;99.90;;;;;;5033195;28;20025;-39
2021/07/22 03:02:31;;;;;;;8.18;5.93;;;16.10;99.90;;;;;;5034489;28;20095;-39
2021/07/22 03:04:56;;;;;;;8.48;6.38;;;16.00;99.90;;;;;;5034319;28;20025;-38
2021/07/22 03:07:22;;;;;;;6.75;5.35;;;16.00;99.90;;;;;;5033473;28;20055;-39
2021/07/22 03:09:47;;;;;;;10.10;6.65;;;15.90;99.90;;;;;;5034333;28;20030;-39
2021/07/22 03:12:13;;;;;;;9.63;6.65;;;15.90;99.90;;;;;;5034353;28;20033;-39
2021/07/22 03:14:38;;;;;;;9.68;6.72;;;15.80;99.90;;;;;;5032859;28;20071;-39
2021/07/22 03:17:04;;;;;;;9.50;6.57;;;15.70;99.90;;;;;;5034172;28;20036;-38
2021/07/22 03:19:29;;;;;;;10.52;6.50;;;15.70;99.90;;;;;;5016462;28;20536;-39
2021/07/22 03:21:55;;;;;;;9.18;7.03;;;15.70;99.90;;;;;;5033952;28;20464;-38
2021/07/22 03:24:20;;;;;;;9.40;6.85;;;15.60;99.90;;;;;;5033957;28;20026;-38
2021/07/22 03:26:46;;;;;;;10.02;5.95;;;15.50;99.90;;;;;;5034035;28;20030;-38
2021/07/22 03:29:11;;;;;;;10.05;6.30;;;15.50;99.90;;;;;;5032698;28;20029;-38
2021/07/22 03:31:37;;;;;;;9.07;6.70;;;15.40;99.90;;;;;;5033873;28;20029;-39
2021/07/22 03:34:02;;;;;;;10.75;7.70;;;15.40;99.90;;;;;;5033862;28;20048;-38
2021/07/22 03:36:28;;;;;;;10.15;6.88;;;15.30;99.90;;;;;;5033589;28;20049;-39
2021/07/22 03:38:53;;;;;;;9.15;7.07;;;15.30;99.90;;;;;;5033697;28;20091;-39
2021/07/22 03:41:22;;;;;;;12.43;7.28;;;15.20;99.90;;;;;;5033646;28;20065;-38
2021/07/22 03:43:47;;;;;;;8.05;6.28;;;15.20;99.90;;;;;;5032187;28;20025;-39
2021/07/22 03:46:13;;;;;;;7.93;6.13;;;15.20;99.90;;;;;;5033611;28;20487;-39
2021/07/22 03:48:38;;;;;;;9.65;5.97;;;15.20;99.90;;;;;;5033519;28;20200;-39
2021/07/22 03:51:04;;;;;;;8.55;5.53;;;15.20;99.90;;;;;;5033453;28;20026;-39
2021/07/22 03:53:29;;;;;;;7.78;6.00;;;15.20;99.90;;;;;;5033388;28;20064;-39
2021/07/22 03:55:56;;;;;;;11.63;6.60;;;15.30;99.90;;;;;;5033395;28;20033;-39
2021/07/22 03:58:21;;;;;;;7.57;5.88;;;15.40;99.90;;;;;;5033422;28;20033;-39
2021/07/22 04:00:47;;;;;;;9.43;6.20;;;15.40;99.90;;;;;;5031982;28;20025;-39
2021/07/22 04:03:12;;;;;;;11.10;6.95;;;15.50;99.90;;;;;;5033313;28;20033;-39
2021/07/22 04:05:38;;;;;;;9.48;7.30;;;15.60;99.90;;;;;;5033115;28;20052;-39
2021/07/22 04:08:04;;;;;;;9.98;6.18;;;15.70;99.90;;;;;;5033254;28;20481;-38
2021/07/22 04:10:29;;;;;;;11.57;6.90;;;15.80;99.90;;;;;;5033237;28;20057;-39
2021/07/22 04:12:58;;;;;;;9.63;7.03;;;15.80;99.90;;;;;;5033153;28;20049;-39
2021/07/22 04:15:24;;;;;;;10.02;6.47;;;15.90;99.90;;;;;;5031911;28;20434;-40
2021/07/22 04:17:51;;;;;;;9.68;5.93;;;16.00;99.90;;;;;;5033024;28;20104;-39
2021/07/22 04:20:18;;;;;;;8.55;6.18;;;16.10;99.90;;;;;;5033015;28;20029;-39
2021/07/22 04:22:43;;;;;;;11.05;7.38;;;16.20;99.90;;;;;;5033001;28;20029;-39
2021/07/22 04:25:10;;;;;;;8.27;5.78;;;16.30;99.90;;;;;;5032958;28;20068;-42
2021/07/22 04:27:35;;;;;;;9.80;6.57;;;16.40;99.90;;;;;;5032944;28;20473;-39
2021/07/22 04:30:01;;;;;;;11.25;7.07;;;16.50;99.90;;;;;;5031691;28;20041;-39
2021/07/22 04:32:27;;;;;;;9.05;6.32;;;16.60;99.90;;;;;;5032944;28;20511;-39
2021/07/22 04:34:53;;;;;;;8.75;6.40;;;16.70;99.90;;;;;;5032786;28;20034;-39
2021/07/22 04:37:18;;;;;;;8.77;6.20;;;16.80;99.90;;;;;;5032684;28;20049;-39
2021/07/22 04:39:44;;;;;;;11.48;7.13;;;17.00;99.90;;;;;;5032789;28;20044;-39
2021/07/22 04:42:09;;;;;;;8.02;6.00;;;17.10;99.90;;;;;;5032829;28;20083;-39
2021/07/22 04:44:35;;;;;;;8.63;6.50;;;17.20;99.90;;;;;;5031580;28;20496;-39
2021/07/22 04:47:00;;;;;;;9.38;6.70;;;17.40;99.90;;;;;;5032757;28;20026;-39
2021/07/22 04:49:26;;;;;;;11.32;7.85;;;17.50;99.90;;;;;;5032715;28;20028;-39
2021/07/22 04:51:51;;;;;;;12.80;7.28;;;17.70;99.90;;;;;;5032586;28;20022;-39
2021/07/22 04:54:16;;;;;;;8.27;6.75;;;17.80;99.90;;;;;;5032799;28;20026;-39
2021/07/22 04:56:42;;;;;;;9.98;7.30;;;18.00;99.90;;;;;;5032895;28;20061;-39
2021/07/22 04:59:08;;;;;;;9.70;7.40;;;18.10;99.90;;;;;;5031480;28;20030;-41
2021/07/22 05:01:33;;;;;;;9.10;6.80;;;18.30;99.90;;;;;;5032630;28;20056;-39
2021/07/22 05:03:59;;;;;;;8.18;6.07;;;18.40;99.90;;;;;;5032489;28;20041;-40
2021/07/22 05:06:25;;;;;;;7.90;6.65;;;18.60;99.90;;;;;;5032496;28;20063;-39
2021/07/22 05:08:50;;;;;;;8.52;5.90;;;18.80;99.90;;;;;;5032519;28;20518;-39
2021/07/22 05:11:16;;;;;;;9.63;6.45;;;18.90;99.90;;;;;;5032500;28;20026;-39
2021/07/22 05:13:42;;;;;;;8.68;6.82;;;19.00;99.90;;;;;;5031236;28;20040;-39
2021/07/22 05:16:08;;;;;;;8.55;6.78;;;19.30;99.90;;;;;;5032434;28;20021;-39
2021/07/22 05:18:34;;;;;;;10.80;7.22;;;19.40;99.90;;;;;;5032499;28;20025;-39
2021/07/22 05:21:07;;;;;;;8.07;5.90;;;19.60;99.90;;;;;;5032313;28;20550;-39
2021/07/22 05:23:33;;;;;;;12.10;8.57;;;19.70;99.90;;;;;;5032451;28;20402;-39
2021/07/22 05:26:03;;;;;;;10.35;6.85;;;19.90;99.90;;;;;;5032275;28;20051;-39
2021/07/22 05:28:29;;;;;;;9.93;6.93;;;20.00;99.90;;;;;;5032351;28;20096;-39
2021/07/22 05:30:55;;;;;;;8.10;6.18;;;20.20;99.90;;;;;;5033020;28;20112;-39
2021/07/22 05:33:20;;;;;;;7.32;6.18;;;20.30;99.90;;;;;;5036066;28;20025;-40
2021/07/22 05:35:46;;;;;;;9.20;6.50;;;20.50;99.90;;;;;;5035856;28;20057;-39
2021/07/22 05:38:11;;;;;;;13.52;7.65;;;20.60;99.90;;;;;;5036060;28;20088;-39
2021/07/22 05:40:37;;;;;;;9.40;7.28;;;20.60;99.90;;;;;;5035981;28;20025;-39
2021/07/22 05:43:02;;;;;;;11.60;6.93;;;20.60;99.90;;;;;;5035927;28;20036;-39
2021/07/22 05:45:28;;;;;;;11.73;7.22;;;20.70;99.90;;;;;;5034566;28;20099;-39
2021/07/22 05:47:54;;;;;;;10.20;6.55;;;20.80;99.90;;;;;;5035971;28;20137;-39
2021/07/22 05:50:20;;;;;;;11.38;7.15;;;20.90;99.90;;;;;;5035847;28;20104;-39
2021/07/22 05:52:45;;;;;;;13.10;7.85;;;21.00;99.90;;;;;;5035776;28;20540;-45
2021/07/22 05:55:11;;;;;;;11.13;7.45;;;21.20;99.90;;;;;;5017975;28;20033;-40
2021/07/22 05:57:36;;;;;;;8.50;6.70;;;21.40;99.90;;;;;;5035719;28;20100;-39
2021/07/22 06:00:03;;;;;;;9.55;6.97;;;21.60;99.90;;;;;;5034358;28;20038;-40
2021/07/22 06:02:29;;;;;;;10.13;6.43;;;21.90;99.90;;;;;;5035898;28;20417;-39
2021/07/22 06:04:54;;;;;;;9.32;6.65;;;22.30;99.90;;;;;;5035363;28;20064;-40
2021/07/22 06:07:20;;;;;;;10.25;6.93;;;22.50;99.90;;;;;;5035534;28;20038;-39
2021/07/22 06:09:45;;;;;;;9.38;7.13;;;22.80;99.90;;;;;;5035449;28;20075;-41
2021/07/22 06:12:11;;;;;;;13.52;6.90;;;23.20;99.90;;;;;;5035372;28;20385;-39
2021/07/22 06:14:36;;;;;;;9.55;7.00;;;23.60;99.90;;;;;;5016322;28;20022;-40
2021/07/22 06:17:02;;;;;;;8.73;6.45;;;24.20;99.90;;;;;;5035259;28;20048;-39
2021/07/22 06:19:30;;;;;;;8.07;6.40;;;24.80;99.90;;;;;;5035220;28;20040;-40
2021/07/22 06:21:56;;;;;;;8.98;7.10;;;25.80;99.90;;;;;;5035189;28;20531;-39
2021/07/22 06:24:21;;;;;;;8.20;6.85;;;26.00;99.90;;;;;;5035110;28;20057;-39
2021/07/22 06:26:47;;;;;;;9.43;6.40;;;26.00;99.90;;;;;;5035101;28;20491;-39
2021/07/22 06:29:12;;;;;;;7.45;6.25;;;26.20;99.90;;;;;;5033822;28;20079;-39
2021/07/22 06:31:38;;;;;;;7.43;6.10;;;26.40;99.90;;;;;;5035085;28;20105;-40
2021/07/22 06:34:03;;;;;;;7.72;6.50;;;26.70;99.90;;;;;;5034910;28;20036;-40
2021/07/22 06:36:29;;;;;;;8.18;6.70;;;26.90;99.90;;;;;;5034849;28;20467;-40
2021/07/22 06:38:54;;;;;;;7.97;6.70;;;27.10;99.90;;;;;;5035110;28;20042;-40
2021/07/22 06:41:21;;;;;;;8.40;6.03;;;27.20;99.90;;;;;;5034052;28;20053;-40
2021/07/22 06:43:47;;;;;;;6.38;5.60;;;27.20;99.90;;;;;;5033117;28;20028;-40
2021/07/22 06:46:13;;;;;;;7.75;5.88;;;27.20;99.90;;;;;;5034823;28;20032;-40
2021/07/22 06:48:39;;;;;;;7.70;6.47;;;27.50;99.90;;;;;;5034662;28;20033;-39
2021/07/22 06:51:07;;;;;;;7.32;5.80;;;28.20;99.70;;;;;;5034721;28;20036;-40
2021/07/22 06:53:33;;;;;;;6.50;5.45;;;29.10;95.20;;;;;;5034664;28;20052;-43
2021/07/22 06:55:59;;;;;;;8.98;6.60;;;29.90;94.20;;;;;;5034586;28;20061;-40
2021/07/22 06:58:24;;;;;;;7.60;6.43;;;30.00;91.70;;;;;;5034514;28;20101;-41
2021/07/22 07:00:51;;;;;;;6.65;5.70;;;30.00;90.30;;;;;;5033149;28;20044;-40
2021/07/22 07:03:16;;;;;;;7.70;6.10;;;29.90;87.10;;;;;;5034373;28;20025;-42
2021/07/22 07:05:42;;;;;;;7.47;5.88;;;29.80;86.70;;;;;;5034364;28;20056;-40
2021/07/22 07:08:07;;;;;;;7.57;5.78;;;29.90;84.90;;;;;;5034360;28;20033;-40
2021/07/22 07:10:33;;;;;;;8.27;6.00;;;30.40;82.70;;;;;;5034420;28;20040;-40
2021/07/22 07:12:58;;;;;;;5.95;5.35;;;30.60;78.80;;;;;;5034285;28;20072;-40
2021/07/22 07:15:24;;;;;;;5.80;5.20;;;31.00;75.80;;;;;;5033021;28;20264;-39
2021/07/22 07:17:50;;;;;;;5.55;5.05;;;31.20;74.90;;;;;;5034139;28;20415;-40
2021/07/22 07:20:16;;;;;;;6.25;5.22;;;31.70;72.40;;;;;;5034181;28;20033;-40
2021/07/22 07:22:42;;;;;;;6.07;4.93;;;31.80;70.80;;;;;;5034168;28;20029;-40
2021/07/22 07:25:08;;;;;;;6.38;5.47;;;32.50;68.10;;;;;;5033981;28;20026;-40
2021/07/22 07:27:35;;;;;;;5.97;5.32;;;32.80;65.30;;;;;;5034038;28;20053;-42
2021/07/22 07:30:00;;;;;;;6.85;4.88;;;32.70;63.40;;;;;;5032635;28;20025;-40
2021/07/22 07:32:26;;;;;;;9.55;6.45;;;32.90;60.20;;;;;;5033892;28;20071;-42
2021/07/22 07:34:51;;;;;;;8.60;6.40;;;33.80;56.70;;;;;;5033928;28;20040;-42
2021/07/22 07:37:17;;;;;;;7.80;6.55;;;34.20;53.00;;;;;;5033696;28;20057;-41
2021/07/22 07:39:42;;;;;;;5.80;5.20;;;34.40;50.10;;;;;;5033817;28;20088;-41
2021/07/22 07:42:08;;;;;;;9.02;6.18;;;34.30;50.60;;;;;;5033720;28;20086;-40
2021/07/22 07:44:33;;;;;;;6.00;5.35;;;34.10;50.00;;;;;;5032369;28;20108;-40
2021/07/22 07:46:59;;;;;;;6.78;5.68;;;34.10;49.80;;;;;;5033562;28;20101;-42
2021/07/22 07:49:24;;;;;;;6.85;5.22;;;34.10;48.30;;;;;;5033593;28;20028;-40
2021/07/22 07:51:50;;;;;;;6.35;4.80;;;34.10;47.90;;;;;;5033582;28;20461;-41
2021/07/22 07:54:22;;;;;;;6.53;4.95;;;34.60;46.90;;;;;;5033132;28;20476;-40
2021/07/22 07:56:51;;;;;;;5.88;5.20;;;34.50;41.70;;;;;;5033512;28;20056;-41
2021/07/22 07:59:18;;;;;;;6.03;5.05;;;34.20;44.00;;;;;;5031997;28;20026;-40
2021/07/22 08:01:43;;;;;;;6.75;5.50;;;34.10;44.40;;;;;;5033313;28;20039;-44
2021/07/22 08:04:09;;;;;;;5.90;5.00;;;34.50;43.30;;;;;;5033289;28;20033;-40
2021/07/22 08:06:35;;;;;;;5.78;4.32;;;35.10;42.40;;;;;;5033315;28;20440;-43
2021/07/22 08:09:00;;;;;;;6.78;4.95;;;35.10;41.90;;;;;;5033253;28;20025;-40
2021/07/22 08:11:26;;;;;;;5.60;4.40;;;36.00;40.40;;;;;;5033317;28;20030;-42
2021/07/22 08:13:51;;;;;;;4.60;4.18;;;36.60;38.50;;;;;;5031872;28;20292;-41
2021/07/22 08:16:18;;;;;;;5.30;4.80;;;36.20;38.10;;;;;;5033084;28;20025;-40
2021/07/22 08:18:45;;;;;;;5.00;4.45;;;36.00;38.40;;;;;;5033100;28;20127;-41
2021/07/22 08:21:14;;;;;;;5.10;4.60;;;35.80;38.10;;;;;;5033047;28;20021;-41
2021/07/22 08:23:40;;;;;;;5.32;3.97;;;36.30;37.10;;;;;;5033049;28;20028;-40
2021/07/22 08:26:05;;;;;;;5.22;3.90;;;37.10;35.50;;;;;;5032917;28;20029;-42
2021/07/22 08:28:35;;;;;;;4.90;4.20;;;37.70;34.50;;;;;;5032520;28;20200;-40
2021/07/22 08:31:01;;;;;;;5.60;4.75;;;38.70;33.00;;;;;;5032830;28;20022;-41
2021/07/22 08:33:26;;;;;;;4.90;4.40;;;39.50;31.20;;;;;;5032946;28;20033;-43
2021/07/22 08:35:52;;;;;;;5.15;3.72;;;39.90;30.00;;;;;;5032751;28;20029;-43
2021/07/22 08:38:17;;;;;;;5.72;4.78;;;40.20;29.70;;;;;;5032872;28;20499;-43
2021/07/22 08:40:43;;;;;;;4.95;4.30;;;41.10;28.80;;;;;;5032958;28;20022;-43
2021/07/22 08:43:10;;;;;;;4.32;3.90;;;41.10;27.70;;;;;;5032781;28;20033;-39
2021/07/22 08:45:36;;;;;;;4.20;3.78;;;39.90;28.10;;;;;;5031402;28;20029;-41
2021/07/22 08:48:02;;;;;;;8.82;4.75;;;40.20;28.20;;;;;;5032785;28;20030;-41
2021/07/22 08:50:28;;;;;;;4.60;4.15;;;40.70;27.20;;;;;;5031793;28;20030;-41
2021/07/22 08:52:53;;;;;;;5.38;4.88;;;40.30;26.70;;;;;;5032718;28;20083;-41
2021/07/22 08:55:19;;;;;;;5.75;5.15;;;40.60;26.10;;;;;;5032745;28;20104;-43
2021/07/22 08:57:45;;;;;;;6.00;5.00;;;39.40;24.70;;;;;;5032633;28;20076;-42
2021/07/22 09:00:12;;;;;;;4.57;4.18;;;37.50;27.20;;;;;;5031263;28;20061;-42
2021/07/22 09:02:38;;;;;;;5.18;4.18;;;37.40;27.80;;;;;;5032668;28;20484;-41
2021/07/22 09:05:07;;;;;;;5.07;4.15;;;38.40;27.10;;;;;;5033236;28;20072;-42
2021/07/22 09:07:33;;;;;;;5.43;4.40;;;39.00;26.40;;;;;;5036722;28;20025;-40
2021/07/22 09:10:07;;;;;;;5.43;4.25;;;38.70;26.30;;;;;;5036681;28;20121;-43
2021/07/22 09:12:49;;;;;;;3.97;3.67;;;38.10;25.20;;;;;;5036461;28;20157;-43
2021/07/22 09:15:28;;;;;;;4.85;3.83;;;37.80;25.60;;;;;;5035186;28;20032;-42
2021/07/22 09:17:55;;;;;;;4.65;4.05;;;38.40;24.50;;;;;;5036408;28;20472;-43
2021/07/22 09:20:26;;;;;;;4.40;4.00;;;38.20;26.20;;;;;;5036422;28;20075;-40
2021/07/22 09:22:52;;;;;;;4.40;3.97;;;38.10;25.90;;;;;;5036316;28;20477;-42
2021/07/22 09:25:18;;;;;;;4.88;4.30;;;37.90;25.80;;;;;;5036217;28;20091;-38
2021/07/22 09:27:45;;;;;;;5.95;4.05;;;36.70;27.00;;;;;;5036320;28;20055;-42
2021/07/22 09:30:12;;;;;;;5.90;5.22;;;35.60;28.00;;;;;;5034908;28;20026;-41
2021/07/22 09:32:39;;;;;;;5.65;4.80;;;34.50;28.60;;;;;;5036220;28;20033;-42
2021/07/22 09:35:15;;;;;;;5.35;4.82;;;33.80;29.70;;;;;;5018487;28;20029;-39
2021/07/22 09:37:46;;;;;;;6.07;4.25;;;33.50;30.70;;;;;;5035908;28;20057;-40
2021/07/22 09:40:29;;;;;;;4.78;4.25;;;33.50;30.00;;;;;;5036042;28;20033;-41
2021/07/22 09:42:55;;;;;;;5.25;4.40;;;33.70;29.90;;;;;;5035960;28;20555;-39
2021/07/22 09:45:23;;;;;;;6.70;4.85;;;34.80;29.10;;;;;;5034613;28;20144;-38
2021/07/22 09:47:50;;;;;;;5.78;4.60;;;36.00;28.10;;;;;;5035775;28;20484;-40
2021/07/22 09:50:21;;;;;;;4.93;4.43;;;36.40;28.00;;;;;;5035750;28;20040;-38
2021/07/22 09:52:49;;;;;;;5.45;4.60;;;36.30;27.50;;;;;;5035835;28;20487;-42
2021/07/22 09:55:26;;;;;;;6.25;4.65;;;36.30;27.30;;;;;;5035653;28;20365;-40
2021/07/22 09:57:57;;;;;;;6.38;4.78;;;36.70;26.90;;;;;;5035662;28;20040;-40
2021/07/22 10:00:23;;;;;;;5.50;4.70;;;36.30;27.10;;;;;;5034236;28;20172;-39
2021/07/22 10:02:51;;;;;;;6.68;4.55;;;36.30;27.20;;;;;;5035611;28;20026;-40
2021/07/22 10:05:21;;;;;;;5.00;4.50;;;35.70;27.60;;;;;;5035683;28;20025;-38
2021/07/22 10:07:48;;;;;;;5.63;4.38;;;34.70;28.40;;;;;;5035604;28;20419;-42
2021/07/22 10:10:15;;;;;;;6.93;4.47;;;33.70;29.20;;;;;;5035509;28;20395;-40
2021/07/22 10:12:52;;;;;;;5.13;4.28;;;32.80;30.00;;;;;;5035498;28;20024;-40
2021/07/22 10:15:19;;;;;;;5.35;4.45;;;31.80;31.20;;;;;;5034110;28;20038;-38
2021/07/22 10:17:47;;;;;;;4.85;4.35;;;31.00;32.40;;;;;;5035122;28;20404;-40
2021/07/22 10:20:14;;;;;;;6.18;4.68;;;30.40;33.60;;;;;;5035317;28;20080;-38
2021/07/22 10:22:43;;;;;;;6.18;4.40;;;29.90;34.80;;;;;;5035322;28;20026;-38
2021/07/22 10:25:12;;;;;;;5.72;4.57;;;29.40;36.50;;;;;;5035406;28;20030;-43
2021/07/22 10:27:42;;;;;;;6.90;4.82;;;29.10;38.10;;;;;;5035121;28;20045;-43
2021/07/22 10:30:09;;;;;;;6.35;4.80;;;28.70;38.30;;;;;;5033890;28;20033;-40
2021/07/22 10:32:36;;;;;;;5.03;4.40;;;28.50;38.80;;;;;;5035101;28;20022;-38
2021/07/22 10:35:03;;;;;;;6.10;4.85;;;28.40;39.50;;;;;;5035119;28;20018;-39
2021/07/22 10:37:29;;;;;;;5.03;4.13;;;28.30;39.90;;;;;;5034849;28;20519;-40
2021/07/22 10:40:05;;;;;;;5.68;5.03;;;28.40;40.20;;;;;;5034978;28;20025;-43
2021/07/22 10:42:43;;;;;;;6.70;4.68;;;28.50;40.50;;;;;;5034901;28;20029;-39
2021/07/22 10:45:20;;;;;;;5.88;5.03;;;28.60;42.00;;;;;;5033509;28;20071;-39
2021/07/22 10:48:03;;;;;;;4.95;4.32;;;28.70;43.50;;;;;;5034877;28;20388;-39
2021/07/22 10:50:39;;;;;;;8.55;4.75;;;28.80;41.70;;;;;;5034646;28;20169;-40
2021/07/22 10:53:05;;;;;;;6.53;4.57;;;29.00;40.90;;;;;;5034700;28;20028;-38
2021/07/22 10:55:42;;;;;;;7.55;5.00;;;29.20;40.30;;;;;;5034641;28;20412;-40
2021/07/22 10:58:23;;;;;;;4.75;4.20;;;29.30;41.00;;;;;;5034612;28;20021;-40
2021/07/22 11:00:49;;;;;;;4.28;3.75;;;29.50;40.80;;;;;;5033230;28;20496;-40
2021/07/22 11:03:36;;;;;;;6.90;5.18;;;29.50;40.10;;;;;;5034415;28;20033;-42
2021/07/22 11:06:05;;;;;;;6.63;4.32;;;29.40;40.70;;;;;;5034407;28;20025;-41
2021/07/22 11:08:33;;;;;;;5.95;4.68;;;29.20;40.80;;;;;;5034356;28;20038;-38
2021/07/22 11:11:02;;;;;;;5.38;4.50;;;28.90;41.40;;;;;;5034390;28;20022;-38
2021/07/22 11:13:37;;;;;;;6.88;5.05;;;28.60;43.00;;;;;;5033449;28;20030;-40
2021/07/22 11:16:03;;;;;;;8.70;6.20;;;28.20;43.60;;;;;;5034336;28;20064;-43
2021/07/22 11:18:44;;;;;;;6.55;4.78;;;28.00;44.80;;;;;;5034196;28;20037;-43
2021/07/22 11:21:18;;;;;;;7.85;5.60;;;27.90;46.10;;;;;;5034190;28;20048;-40
2021/07/22 11:23:52;;;;;;;7.55;4.47;;;27.80;45.50;;;;;;5034156;28;20036;-42
2021/07/22 11:26:22;;;;;;;9.02;4.70;;;27.70;47.70;;;;;;5034269;28;20481;-39
2021/07/22 11:28:51;;;;;;;7.18;4.93;;;27.80;46.50;;;;;;5032001;28;20457;-40
2021/07/22 11:31:17;;;;;;;5.63;4.65;;;27.80;46.40;;;;;;5033906;28;20021;-42
2021/07/22 11:33:42;;;;;;;6.30;4.80;;;27.70;46.60;;;;;;5033917;28;20033;-42
2021/07/22 11:36:12;;;;;;;6.72;4.78;;;27.70;47.90;;;;;;5033774;28;20046;-44
2021/07/22 11:38:39;;;;;;;6.57;5.03;;;27.50;47.40;;;;;;5033727;28;20029;-38
2021/07/22 11:41:12;;;;;;;8.32;5.10;;;27.30;48.00;;;;;;5033824;28;20484;-40
2021/07/22 11:43:39;;;;;;;6.95;5.32;;;27.00;51.00;;;;;;5032490;28;20053;-38
2021/07/22 11:46:08;;;;;;;7.63;6.07;;;26.80;50.50;;;;;;5033634;28;20017;-40
2021/07/22 11:48:33;;;;;;;5.80;5.20;;;26.60;52.10;;;;;;5033647;28;20484;-39
2021/07/22 11:50:59;;;;;;;7.60;5.68;;;26.40;53.20;;;;;;5033531;28;20044;-41
2021/07/22 11:53:25;;;;;;;8.88;5.88;;;26.20;54.20;;;;;;5033518;28;20029;-41
2021/07/22 11:55:50;;;;;;;6.65;4.88;;;26.10;55.10;;;;;;5033580;28;20097;-42
2021/07/22 11:58:16;;;;;;;8.90;5.28;;;26.00;55.90;;;;;;5033525;28;20152;-40
2021/07/22 12:00:42;;;;;;;7.35;5.10;;;26.00;56.60;;;;;;5032371;28;20025;-40
2021/07/22 12:03:08;;;;;;;7.50;4.60;;;25.90;57.30;;;;;;5033407;28;20108;-39
2021/07/22 12:05:33;;;;;;;7.68;5.47;;;25.90;57.60;;;;;;5033139;28;20120;-40
2021/07/22 12:08:16;;;;;;;6.47;4.65;;;25.90;57.70;;;;;;5033352;28;20033;-38
2021/07/22 12:10:41;;;;;;;6.97;5.00;;;25.90;58.90;;;;;;5033193;28;20036;-37
2021/07/22 12:13:11;;;;;;;7.25;4.90;;;25.90;57.20;;;;;;5033276;28;20400;-39
2021/07/22 12:15:38;;;;;;;6.85;4.75;;;26.00;56.40;;;;;;5014221;28;20025;-38
2021/07/22 12:18:04;;;;;;;5.82;4.35;;;26.00;55.60;;;;;;5033084;28;20426;-37
2021/07/22 12:20:30;;;;;;;7.72;4.30;;;26.10;55.10;;;;;;5033088;28;20464;-41
2021/07/22 12:22:56;;;;;;;7.95;4.35;;;26.20;54.20;;;;;;5033143;28;20045;-38
2021/07/22 12:25:21;;;;;;;6.75;5.63;;;26.20;53.70;;;;;;5033021;28;20029;-39
2021/07/22 12:27:47;;;;;;;9.57;5.20;;;26.30;53.50;;;;;;5033014;28;20032;-40
2021/07/22 12:30:12;;;;;;;5.53;4.40;;;26.30;53.50;;;;;;5031757;28;20105;-38
2021/07/22 12:32:47;;;;;;;5.85;4.57;;;26.20;53.50;;;;;;5032892;28;20053;-37
2021/07/22 12:35:42;;;;;;;5.07;4.20;;;26.20;54.50;;;;;;5032998;28;20042;-40
2021/07/22 12:38:24;;;;;;;6.40;5.15;;;26.40;54.10;;;;;;5032952;28;20480;-40
2021/07/22 12:40:56;;;;;;;6.75;5.13;;;26.60;53.50;;;;;;5032793;28;20477;-40
2021/07/22 12:43:23;;;;;;;6.07;4.93;;;26.70;53.30;;;;;;5032426;28;20538;-40